sensor_id;sensor_type;location;lat;lon;timestamp;temperature;humidity
75210;DHT22;63796;53.136;14.882;2022-11-28T00:01:07;5.00;99.90
75210;DHT22;63796;53.136;14.882;2022-11-28T00:03:35;5.00;99.90
75210;DHT22;63796;53.136;14.882;2022-11-28T00:06:06;5.10;99.90
75210;DHT22;63796;53.136;14.882;2022-11-28T00:08:34;5.10;99.90
75210;DHT22;63796;53.136;14.882;2022-11-28T00:11:06;5.00;99.90
75210;DHT22;63796;53.136;14.882;2022-11-28T00:13:34;5.00;99.90
75210;DHT22;63796;53.136;14.882;2022-11-28T00:16:03;5.00;99.90
75210;DHT22;63796;53.136;14.882;2022-11-28T00:18:33;5.00;99.90
75210;DHT22;63796;53.136;14.882;2022-11-28T00:21:01;5.00;99.90
75210;DHT22;63796;53.136;14.882;2022-11-28T00:23:30;5.00;99.90
75210;DHT22;63796;53.136;14.882;2022-11-28T00:26:09;5.10;99.90
75210;DHT22;63796;53.136;14.882;2022-11-28T00:28:38;5.00;99.90
75210;DHT22;63796;53.136;14.882;2022-11-28T00:31:05;5.00;99.90
75210;DHT22;63796;53.136;14.882;2022-11-28T00:33:34;4.90;99.90
75210;DHT22;63796;53.136;14.882;2022-11-28T00:36:03;4.90;99.90
75210;DHT22;63796;53.136;14.882;2022-11-28T00:38:30;4.90;99.90
75210;DHT22;63796;53.136;14.882;2022-11-28T00:41:05;4.80;99.90
75210;DHT22;63796;53.136;14.882;2022-11-28T00:43:32;4.80;99.90
75210;DHT22;63796;53.136;14.882;2022-11-28T00:46:00;4.90;99.90
75210;DHT22;63796;53.136;14.882;2022-11-28T00:48:27;4.90;99.90
75210;DHT22;63796;53.136;14.882;2022-11-28T00:50:54;4.90;99.90
75210;DHT22;63796;53.136;14.882;2022-11-28T00:53:23;4.90;99.90
75210;DHT22;63796;53.136;14.882;2022-11-28T00:55:50;4.90;99.90
75210;DHT22;63796;53.136;14.882;2022-11-28T00:58:17;4.90;99.90
75210;DHT22;63796;53.136;14.882;2022-11-28T01:00:44;5.00;99.90
75210;DHT22;63796;53.136;14.882;2022-11-28T01:03:11;5.00;99.90
75210;DHT22;63796;53.136;14.882;2022-11-28T01:05:41;5.00;99.90
75210;DHT22;63796;53.136;14.882;2022-11-28T01:08:09;5.00;99.90
75210;DHT22;63796;53.136;14.882;2022-11-28T01:10:40;5.00;99.90
75210;DHT22;63796;53.136;14.882;2022-11-28T01:13:09;5.00;99.90
75210;DHT22;63796;53.136;14.882;2022-11-28T01:15:39;5.00;99.90
75210;DHT22;63796;53.136;14.882;2022-11-28T01:18:07;5.00;99.90
75210;DHT22;63796;53.136;14.882;2022-11-28T01:20:35;5.00;99.90
75210;DHT22;63796;53.136;14.882;2022-11-28T01:23:02;5.00;99.90
75210;DHT22;63796;53.136;14.882;2022-11-28T01:25:29;5.00;99.90
75210;DHT22;63796;53.136;14.882;2022-11-28T01:27:56;5.10;99.90
75210;DHT22;63796;53.136;14.882;2022-11-28T01:30:23;5.10;99.90
75210;DHT22;63796;53.136;14.882;2022-11-28T01:32:50;5.10;99.90
75210;DHT22;63796;53.136;14.882;2022-11-28T01:35:17;5.10;99.90
75210;DHT22;63796;53.136;14.882;2022-11-28T01:37:44;5.10;99.90
75210;DHT22;63796;53.136;14.882;2022-11-28T01:40:12;5.10;99.90
75210;DHT22;63796;53.136;14.882;2022-11-28T01:42:41;5.10;99.90
75210;DHT22;63796;53.136;14.882;2022-11-28T01:45:14;5.10;99.90
75210;DHT22;63796;53.136;14.882;2022-11-28T01:47:53;5.10;99.90
75210;DHT22;63796;53.136;14.882;2022-11-28T01:50:22;5.10;99.90
75210;DHT22;63796;53.136;14.882;2022-11-28T01:52:52;5.10;99.90
75210;DHT22;63796;53.136;14.882;2022-11-28T01:55:24;5.20;99.90
75210;DHT22;63796;53.136;14.882;2022-11-28T01:57:54;5.10;99.90
75210;DHT22;63796;53.136;14.882;2022-11-28T02:00:22;5.20;99.90
75210;DHT22;63796;53.136;14.882;2022-11-28T02:03:05;5.20;99.90
75210;DHT22;63796;53.136;14.882;2022-11-28T02:05:34;5.20;99.90
75210;DHT22;63796;53.136;14.882;2022-11-28T02:08:02;5.10;99.90
75210;DHT22;63796;53.136;14.882;2022-11-28T02:13:25;5.10;99.90
75210;DHT22;63796;53.136;14.882;2022-11-28T02:16:28;5.10;99.90
75210;DHT22;63796;53.136;14.882;2022-11-28T02:21:43;4.90;99.90
75210;DHT22;63796;53.136;14.882;2022-11-28T02:30:04;4.80;99.90
75210;DHT22;63796;53.136;14.882;2022-11-28T02:32:45;4.70;99.90
75210;DHT22;63796;53.136;14.882;2022-11-28T02:35:40;4.80;99.90
75210;DHT22;63796;53.136;14.882;2022-11-28T02:38:13;4.80;99.90
75210;DHT22;63796;53.136;14.882;2022-11-28T02:49:15;4.60;99.90
75210;DHT22;63796;53.136;14.882;2022-11-28T02:51:54;4.70;99.90
75210;DHT22;63796;53.136;14.882;2022-11-28T02:54:24;4.70;99.90
75210;DHT22;63796;53.136;14.882;2022-11-28T02:56:53;4.80;99.90
75210;DHT22;63796;53.136;14.882;2022-11-28T03:02:28;4.80;99.90
75210;DHT22;63796;53.136;14.882;2022-11-28T03:10:38;4.60;99.90
75210;DHT22;63796;53.136;14.882;2022-11-28T03:13:12;4.60;99.90
75210;DHT22;63796;53.136;14.882;2022-11-28T03:18:40;4.60;99.90
75210;DHT22;63796;53.136;14.882;2022-11-28T03:21:31;4.60;99.90
75210;DHT22;63796;53.136;14.882;2022-11-28T03:24:06;4.60;99.90
75210;DHT22;63796;53.136;14.882;2022-11-28T03:27:01;4.50;99.90
75210;DHT22;63796;53.136;14.882;2022-11-28T03:29:43;4.50;99.90
75210;DHT22;63796;53.136;14.882;2022-11-28T03:32:23;4.50;99.90
75210;DHT22;63796;53.136;14.882;2022-11-28T03:34:57;4.50;99.90
75210;DHT22;63796;53.136;14.882;2022-11-28T03:37:47;4.50;99.90
75210;DHT22;63796;53.136;14.882;2022-11-28T03:40:14;4.50;99.90
75210;DHT22;63796;53.136;14.882;2022-11-28T03:42:50;4.50;99.90
75210;DHT22;63796;53.136;14.882;2022-11-28T03:45:21;4.50;99.90
75210;DHT22;63796;53.136;14.882;2022-11-28T03:47:59;4.50;99.90
75210;DHT22;63796;53.136;14.882;2022-11-28T03:50:33;4.50;99.90
75210;DHT22;63796;53.136;14.882;2022-11-28T03:53:07;4.40;99.90
75210;DHT22;63796;53.136;14.882;2022-11-28T03:55:38;4.40;99.90
75210;DHT22;63796;53.136;14.882;2022-11-28T04:03:40;4.40;99.90
75210;DHT22;63796;53.136;14.882;2022-11-28T04:06:28;4.40;99.90
75210;DHT22;63796;53.136;14.882;2022-11-28T04:09:12;4.40;99.90
75210;DHT22;63796;53.136;14.882;2022-11-28T04:12:00;4.40;99.90
75210;DHT22;63796;53.136;14.882;2022-11-28T04:14:33;4.40;99.90
75210;DHT22;63796;53.136;14.882;2022-11-28T04:17:16;4.30;99.90
75210;DHT22;63796;53.136;14.882;2022-11-28T04:20:18;4.30;99.90
75210;DHT22;63796;53.136;14.882;2022-11-28T04:22:54;4.20;99.90
75210;DHT22;63796;53.136;14.882;2022-11-28T04:25:25;4.20;99.90
75210;DHT22;63796;53.136;14.882;2022-11-28T04:28:00;4.20;99.90
75210;DHT22;63796;53.136;14.882;2022-11-28T04:30:29;4.20;99.90
75210;DHT22;63796;53.136;14.882;2022-11-28T04:33:00;4.10;99.90
75210;DHT22;63796;53.136;14.882;2022-11-28T04:35:34;4.10;99.90
75210;DHT22;63796;53.136;14.882;2022-11-28T04:38:04;4.10;99.90
75210;DHT22;63796;53.136;14.882;2022-11-28T04:40:43;4.10;99.90
75210;DHT22;63796;53.136;14.882;2022-11-28T04:43:22;4.10;99.90
75210;DHT22;63796;53.136;14.882;2022-11-28T04:45:53;4.00;99.90
75210;DHT22;63796;53.136;14.882;2022-11-28T04:48:25;4.00;99.90
75210;DHT22;63796;53.136;14.882;2022-11-28T04:51:23;4.00;99.90
75210;DHT22;63796;53.136;14.882;2022-11-28T04:54:20;4.00;99.90
75210;DHT22;63796;53.136;14.882;2022-11-28T04:59:43;3.90;99.90
75210;DHT22;63796;53.136;14.882;2022-11-28T05:02:12;3.90;99.90
75210;DHT22;63796;53.136;14.882;2022-11-28T05:04:42;3.90;99.90
75210;DHT22;63796;53.136;14.882;2022-11-28T05:07:10;3.90;99.90
75210;DHT22;63796;53.136;14.882;2022-11-28T05:09:37;3.90;99.90
75210;DHT22;63796;53.136;14.882;2022-11-28T05:12:04;3.80;99.90
75210;DHT22;63796;53.136;14.882;2022-11-28T05:14:32;3.80;99.90
75210;DHT22;63796;53.136;14.882;2022-11-28T05:16:59;3.80;99.90
75210;DHT22;63796;53.136;14.882;2022-11-28T05:19:26;3.80;99.90
75210;DHT22;63796;53.136;14.882;2022-11-28T05:21:53;3.80;99.90
75210;DHT22;63796;53.136;14.882;2022-11-28T05:24:20;3.80;99.90
75210;DHT22;63796;53.136;14.882;2022-11-28T05:26:47;3.80;99.90
75210;DHT22;63796;53.136;14.882;2022-11-28T05:29:14;3.80;99.90
75210;DHT22;63796;53.136;14.882;2022-11-28T05:31:40;3.80;99.90
75210;DHT22;63796;53.136;14.882;2022-11-28T05:34:07;3.70;99.90
75210;DHT22;63796;53.136;14.882;2022-11-28T05:36:34;3.70;99.90
75210;DHT22;63796;53.136;14.882;2022-11-28T05:39:01;3.70;99.90
75210;DHT22;63796;53.136;14.882;2022-11-28T05:41:30;3.70;99.90
75210;DHT22;63796;53.136;14.882;2022-11-28T05:43:58;3.60;99.90
75210;DHT22;63796;53.136;14.882;2022-11-28T05:46:27;3.60;99.90
75210;DHT22;63796;53.136;14.882;2022-11-28T05:48:55;3.60;99.90
75210;DHT22;63796;53.136;14.882;2022-11-28T05:51:22;3.50;99.90
75210;DHT22;63796;53.136;14.882;2022-11-28T05:53:49;3.60;99.90
75210;DHT22;63796;53.136;14.882;2022-11-28T05:56:18;3.50;99.90
75210;DHT22;63796;53.136;14.882;2022-11-28T05:58:45;3.50;99.90
75210;DHT22;63796;53.136;14.882;2022-11-28T06:01:18;3.40;99.90
75210;DHT22;63796;53.136;14.882;2022-11-28T06:03:46;3.40;99.90
75210;DHT22;63796;53.136;14.882;2022-11-28T06:06:16;3.40;99.90
75210;DHT22;63796;53.136;14.882;2022-11-28T06:08:46;3.40;99.90
75210;DHT22;63796;53.136;14.882;2022-11-28T06:11:14;3.40;99.90
75210;DHT22;63796;53.136;14.882;2022-11-28T06:13:43;3.40;99.90
75210;DHT22;63796;53.136;14.882;2022-11-28T06:16:20;3.40;99.90
75210;DHT22;63796;53.136;14.882;2022-11-28T06:18:44;3.30;99.90
75210;DHT22;63796;53.136;14.882;2022-11-28T06:21:13;3.30;99.90
75210;DHT22;63796;53.136;14.882;2022-11-28T06:23:40;3.30;99.90
75210;DHT22;63796;53.136;14.882;2022-11-28T06:26:09;3.30;99.90
75210;DHT22;63796;53.136;14.882;2022-11-28T06:28:38;3.30;99.90
75210;DHT22;63796;53.136;14.882;2022-11-28T06:31:18;3.20;99.90
75210;DHT22;63796;53.136;14.882;2022-11-28T06:33:44;3.20;99.90
75210;DHT22;63796;53.136;14.882;2022-11-28T06:36:12;3.30;99.90
75210;DHT22;63796;53.136;14.882;2022-11-28T06:38:39;3.20;99.90
75210;DHT22;63796;53.136;14.882;2022-11-28T06:41:09;3.20;99.90
75210;DHT22;63796;53.136;14.882;2022-11-28T06:43:37;3.20;99.90
75210;DHT22;63796;53.136;14.882;2022-11-28T06:46:10;3.20;99.90
75210;DHT22;63796;53.136;14.882;2022-11-28T06:48:38;3.20;99.90
75210;DHT22;63796;53.136;14.882;2022-11-28T06:51:05;3.30;99.90
75210;DHT22;63796;53.136;14.882;2022-11-28T06:53:33;3.30;99.90
75210;DHT22;63796;53.136;14.882;2022-11-28T06:56:11;3.30;99.90
75210;DHT22;63796;53.136;14.882;2022-11-28T06:58:36;3.30;99.90
75210;DHT22;63796;53.136;14.882;2022-11-28T07:01:11;3.30;99.90
75210;DHT22;63796;53.136;14.882;2022-11-28T07:03:40;3.20;99.90
75210;DHT22;63796;53.136;14.882;2022-11-28T07:06:07;3.30;99.90
75210;DHT22;63796;53.136;14.882;2022-11-28T07:08:35;3.30;99.90
75210;DHT22;63796;53.136;14.882;2022-11-28T07:11:14;3.30;99.90
75210;DHT22;63796;53.136;14.882;2022-11-28T07:13:43;3.40;99.90
75210;DHT22;63796;53.136;14.882;2022-11-28T07:16:23;3.40;99.90
75210;DHT22;63796;53.136;14.882;2022-11-28T07:18:52;3.40;99.90
75210;DHT22;63796;53.136;14.882;2022-11-28T07:21:20;3.40;99.90
75210;DHT22;63796;53.136;14.882;2022-11-28T07:23:47;3.40;99.90
75210;DHT22;63796;53.136;14.882;2022-11-28T07:26:17;3.40;99.90
75210;DHT22;63796;53.136;14.882;2022-11-28T07:28:47;3.50;99.90
75210;DHT22;63796;53.136;14.882;2022-11-28T07:31:21;3.40;99.90
75210;DHT22;63796;53.136;14.882;2022-11-28T07:33:47;3.40;99.90
75210;DHT22;63796;53.136;14.882;2022-11-28T07:36:22;3.40;99.90
75210;DHT22;63796;53.136;14.882;2022-11-28T07:38:52;3.40;99.90
75210;DHT22;63796;53.136;14.882;2022-11-28T07:41:23;3.30;99.90
75210;DHT22;63796;53.136;14.882;2022-11-28T07:44:00;3.30;99.90
75210;DHT22;63796;53.136;14.882;2022-11-28T07:46:26;3.30;99.90
75210;DHT22;63796;53.136;14.882;2022-11-28T07:48:54;3.40;99.90
75210;DHT22;63796;53.136;14.882;2022-11-28T07:51:23;3.30;99.90
75210;DHT22;63796;53.136;14.882;2022-11-28T07:53:53;3.30;99.90
75210;DHT22;63796;53.136;14.882;2022-11-28T07:56:26;3.30;99.90
75210;DHT22;63796;53.136;14.882;2022-11-28T07:58:51;3.40;99.90
75210;DHT22;63796;53.136;14.882;2022-11-28T08:01:28;3.40;99.90
75210;DHT22;63796;53.136;14.882;2022-11-28T08:03:57;3.40;99.90
75210;DHT22;63796;53.136;14.882;2022-11-28T08:06:27;3.40;99.90
75210;DHT22;63796;53.136;14.882;2022-11-28T08:08:56;3.40;99.90
75210;DHT22;63796;53.136;14.882;2022-11-28T08:11:25;3.50;99.90
75210;DHT22;63796;53.136;14.882;2022-11-28T08:13:54;3.50;99.90
75210;DHT22;63796;53.136;14.882;2022-11-28T08:16:22;3.60;99.90
75210;DHT22;63796;53.136;14.882;2022-11-28T08:18:51;3.60;99.90
75210;DHT22;63796;53.136;14.882;2022-11-28T08:21:25;3.50;99.90
75210;DHT22;63796;53.136;14.882;2022-11-28T08:23:54;3.60;99.90
75210;DHT22;63796;53.136;14.882;2022-11-28T08:26:25;3.70;99.90
75210;DHT22;63796;53.136;14.882;2022-11-28T08:28:52;3.70;99.90
75210;DHT22;63796;53.136;14.882;2022-11-28T08:31:22;3.60;99.90
75210;DHT22;63796;53.136;14.882;2022-11-28T08:33:55;3.60;99.90
75210;DHT22;63796;53.136;14.882;2022-11-28T08:36:22;3.70;99.90
75210;DHT22;63796;53.136;14.882;2022-11-28T08:38:49;3.70;99.90
75210;DHT22;63796;53.136;14.882;2022-11-28T08:41:19;3.80;99.90
75210;DHT22;63796;53.136;14.882;2022-11-28T08:43:48;3.80;99.90
75210;DHT22;63796;53.136;14.882;2022-11-28T08:46:18;3.80;99.90
75210;DHT22;63796;53.136;14.882;2022-11-28T08:48:48;3.80;99.90
75210;DHT22;63796;53.136;14.882;2022-11-28T08:51:18;3.90;99.90
75210;DHT22;63796;53.136;14.882;2022-11-28T08:53:50;3.90;99.90
75210;DHT22;63796;53.136;14.882;2022-11-28T08:56:18;3.90;99.90
75210;DHT22;63796;53.136;14.882;2022-11-28T08:58:44;3.90;99.90
75210;DHT22;63796;53.136;14.882;2022-11-28T09:01:18;4.10;99.90
75210;DHT22;63796;53.136;14.882;2022-11-28T09:03:43;4.10;99.90
75210;DHT22;63796;53.136;14.882;2022-11-28T09:06:10;4.10;99.90
75210;DHT22;63796;53.136;14.882;2022-11-28T09:08:38;4.30;99.90
75210;DHT22;63796;53.136;14.882;2022-11-28T09:11:06;4.30;99.90
75210;DHT22;63796;53.136;14.882;2022-11-28T09:13:35;4.20;99.90
75210;DHT22;63796;53.136;14.882;2022-11-28T09:16:03;4.50;99.90
75210;DHT22;63796;53.136;14.882;2022-11-28T09:18:31;4.50;99.90
75210;DHT22;63796;53.136;14.882;2022-11-28T09:21:00;4.60;99.90
75210;DHT22;63796;53.136;14.882;2022-11-28T09:23:29;4.70;99.90
75210;DHT22;63796;53.136;14.882;2022-11-28T09:25:56;4.70;99.90
75210;DHT22;63796;53.136;14.882;2022-11-28T09:28:24;4.70;99.90
75210;DHT22;63796;53.136;14.882;2022-11-28T09:31:00;4.60;99.90
75210;DHT22;63796;53.136;14.882;2022-11-28T09:33:27;4.80;99.90
75210;DHT22;63796;53.136;14.882;2022-11-28T09:35:54;4.90;99.90
75210;DHT22;63796;53.136;14.882;2022-11-28T09:38:21;5.10;99.90
75210;DHT22;63796;53.136;14.882;2022-11-28T09:40:51;5.10;99.90
75210;DHT22;63796;53.136;14.882;2022-11-28T09:43:33;5.10;99.90
75210;DHT22;63796;53.136;14.882;2022-11-28T09:46:04;5.10;99.90
75210;DHT22;63796;53.136;14.882;2022-11-28T09:48:40;5.20;99.90
75210;DHT22;63796;53.136;14.882;2022-11-28T09:51:18;5.30;99.90
75210;DHT22;63796;53.136;14.882;2022-11-28T09:56:28;5.30;99.90
75210;DHT22;63796;53.136;14.882;2022-11-28T09:58:57;5.30;99.90
75210;DHT22;63796;53.136;14.882;2022-11-28T10:01:43;5.20;99.90
75210;DHT22;63796;53.136;14.882;2022-11-28T10:07:42;5.20;99.90
75210;DHT22;63796;53.136;14.882;2022-11-28T10:19:13;6.00;99.90
75210;DHT22;63796;53.136;14.882;2022-11-28T10:21:48;6.40;99.90
75210;DHT22;63796;53.136;14.882;2022-11-28T10:24:29;6.10;99.90
75210;DHT22;63796;53.136;14.882;2022-11-28T10:27:08;5.90;99.90
75210;DHT22;63796;53.136;14.882;2022-11-28T10:29:56;5.80;99.90
75210;DHT22;63796;53.136;14.882;2022-11-28T10:32:30;5.90;99.90
75210;DHT22;63796;53.136;14.882;2022-11-28T10:35:04;6.00;99.90
75210;DHT22;63796;53.136;14.882;2022-11-28T10:37:35;6.40;99.90
75210;DHT22;63796;53.136;14.882;2022-11-28T10:43:09;6.20;99.90
75210;DHT22;63796;53.136;14.882;2022-11-28T10:46:21;6.30;99.90
75210;DHT22;63796;53.136;14.882;2022-11-28T11:00:27;6.50;99.90
75210;DHT22;63796;53.136;14.882;2022-11-28T11:02:56;6.60;99.90
75210;DHT22;63796;53.136;14.882;2022-11-28T11:05:29;6.70;99.90
75210;DHT22;63796;53.136;14.882;2022-11-28T11:08:21;6.50;99.90
75210;DHT22;63796;53.136;14.882;2022-11-28T11:11:02;6.50;99.90
75210;DHT22;63796;53.136;14.882;2022-11-28T11:16:51;6.00;99.90
75210;DHT22;63796;53.136;14.882;2022-11-28T11:19:23;5.90;99.90
75210;DHT22;63796;53.136;14.882;2022-11-28T11:24:32;5.80;99.90
75210;DHT22;63796;53.136;14.882;2022-11-28T11:27:16;5.60;99.90
75210;DHT22;63796;53.136;14.882;2022-11-28T11:29:48;5.50;99.90
75210;DHT22;63796;53.136;14.882;2022-11-28T11:32:20;5.40;99.90
75210;DHT22;63796;53.136;14.882;2022-11-28T11:34:52;5.30;99.90
75210;DHT22;63796;53.136;14.882;2022-11-28T11:37:36;5.50;99.90
75210;DHT22;63796;53.136;14.882;2022-11-28T11:40:25;5.40;99.90
75210;DHT22;63796;53.136;14.882;2022-11-28T11:42:56;5.40;99.90
75210;DHT22;63796;53.136;14.882;2022-11-28T11:45:29;5.50;99.90
75210;DHT22;63796;53.136;14.882;2022-11-28T11:48:02;5.60;99.90
75210;DHT22;63796;53.136;14.882;2022-11-28T11:50:30;5.60;99.90
75210;DHT22;63796;53.136;14.882;2022-11-28T11:53:12;5.40;99.90
75210;DHT22;63796;53.136;14.882;2022-11-28T11:55:52;5.30;99.90
75210;DHT22;63796;53.136;14.882;2022-11-28T11:58:20;5.30;99.90
75210;DHT22;63796;53.136;14.882;2022-11-28T12:00:51;5.20;99.90
75210;DHT22;63796;53.136;14.882;2022-11-28T12:03:24;5.20;99.90
75210;DHT22;63796;53.136;14.882;2022-11-28T12:06:03;5.20;99.90
75210;DHT22;63796;53.136;14.882;2022-11-28T12:11:24;5.10;99.90
75210;DHT22;63796;53.136;14.882;2022-11-28T12:13:56;5.20;99.90
75210;DHT22;63796;53.136;14.882;2022-11-28T12:19:42;5.60;99.90
75210;DHT22;63796;53.136;14.882;2022-11-28T12:49:15;6.10;99.90
75210;DHT22;63796;53.136;14.882;2022-11-28T12:54:50;5.60;99.90
75210;DHT22;63796;53.136;14.882;2022-11-28T13:00:18;5.70;99.90
75210;DHT22;63796;53.136;14.882;2022-11-28T13:03:12;5.70;99.90
75210;DHT22;63796;53.136;14.882;2022-11-28T13:06:13;5.80;99.90
75210;DHT22;63796;53.136;14.882;2022-11-28T13:14:59;5.60;99.90
75210;DHT22;63796;53.136;14.882;2022-11-28T13:17:56;5.50;99.90
75210;DHT22;63796;53.136;14.882;2022-11-28T13:20:44;5.30;99.90
75210;DHT22;63796;53.136;14.882;2022-11-28T13:23:33;5.10;99.90
75210;DHT22;63796;53.136;14.882;2022-11-28T13:28:58;4.90;99.90
75210;DHT22;63796;53.136;14.882;2022-11-28T13:34:15;4.70;99.90
75210;DHT22;63796;53.136;14.882;2022-11-28T13:39:38;4.50;99.90
75210;DHT22;63796;53.136;14.882;2022-11-28T13:47:51;4.30;99.90
75210;DHT22;63796;53.136;14.882;2022-11-28T13:55:45;4.10;99.90
75210;DHT22;63796;53.136;14.882;2022-11-28T13:58:19;4.10;99.90
75210;DHT22;63796;53.136;14.882;2022-11-28T14:06:30;3.90;99.90
75210;DHT22;63796;53.136;14.882;2022-11-28T14:12:00;3.80;99.90
75210;DHT22;63796;53.136;14.882;2022-11-28T14:17:53;3.70;99.90
75210;DHT22;63796;53.136;14.882;2022-11-28T14:20:41;3.60;99.90
75210;DHT22;63796;53.136;14.882;2022-11-28T14:23:30;3.60;99.90
75210;DHT22;63796;53.136;14.882;2022-11-28T14:26:00;3.60;99.90
75210;DHT22;63796;53.136;14.882;2022-11-28T14:28:32;3.60;99.90
75210;DHT22;63796;53.136;14.882;2022-11-28T14:34:02;3.50;99.90
75210;DHT22;63796;53.136;14.882;2022-11-28T14:36:38;3.50;99.90
75210;DHT22;63796;53.136;14.882;2022-11-28T14:47:31;3.40;99.90
75210;DHT22;63796;53.136;14.882;2022-11-28T14:52:41;3.30;99.90
75210;DHT22;63796;53.136;14.882;2022-11-28T14:55:14;3.30;99.90
75210;DHT22;63796;53.136;14.882;2022-11-28T14:57:54;3.20;99.90
75210;DHT22;63796;53.136;14.882;2022-11-28T15:00:49;3.20;99.90
75210;DHT22;63796;53.136;14.882;2022-11-28T15:05:58;3.10;99.90
75210;DHT22;63796;53.136;14.882;2022-11-28T15:08:36;3.10;99.90
75210;DHT22;63796;53.136;14.882;2022-11-28T15:16:33;3.10;99.90
75210;DHT22;63796;53.136;14.882;2022-11-28T15:19:12;3.10;99.90
75210;DHT22;63796;53.136;14.882;2022-11-28T15:21:49;3.10;99.90
75210;DHT22;63796;53.136;14.882;2022-11-28T15:29:39;3.20;99.90
75210;DHT22;63796;53.136;14.882;2022-11-28T15:32:06;3.20;99.90
75210;DHT22;63796;53.136;14.882;2022-11-28T15:34:36;3.30;99.90
75210;DHT22;63796;53.136;14.882;2022-11-28T15:37:06;3.30;99.90
75210;DHT22;63796;53.136;14.882;2022-11-28T15:39:46;3.30;99.90
75210;DHT22;63796;53.136;14.882;2022-11-28T15:42:29;3.40;99.90
75210;DHT22;63796;53.136;14.882;2022-11-28T15:44:59;3.40;99.90
75210;DHT22;63796;53.136;14.882;2022-11-28T15:47:45;3.40;99.90
75210;DHT22;63796;53.136;14.882;2022-11-28T15:50:22;3.40;99.90
75210;DHT22;63796;53.136;14.882;2022-11-28T15:55:32;3.50;99.90
75210;DHT22;63796;53.136;14.882;2022-11-28T15:58:20;3.50;99.90
75210;DHT22;63796;53.136;14.882;2022-11-28T16:01:10;3.50;99.90
75210;DHT22;63796;53.136;14.882;2022-11-28T16:06:25;3.50;99.90
75210;DHT22;63796;53.136;14.882;2022-11-28T16:08:59;3.50;99.90
75210;DHT22;63796;53.136;14.882;2022-11-28T16:11:33;3.60;99.90
75210;DHT22;63796;53.136;14.882;2022-11-28T16:14:06;3.60;99.90
75210;DHT22;63796;53.136;14.882;2022-11-28T16:16:36;3.60;99.90
75210;DHT22;63796;53.136;14.882;2022-11-28T16:19:06;3.60;99.90
75210;DHT22;63796;53.136;14.882;2022-11-28T16:21:44;3.60;99.90
75210;DHT22;63796;53.136;14.882;2022-11-28T16:24:29;3.50;99.90
75210;DHT22;63796;53.136;14.882;2022-11-28T16:27:01;3.60;99.90
75210;DHT22;63796;53.136;14.882;2022-11-28T16:29:32;3.60;99.90
75210;DHT22;63796;53.136;14.882;2022-11-28T16:32:34;3.60;99.90
75210;DHT22;63796;53.136;14.882;2022-11-28T16:35:06;3.60;99.90
75210;DHT22;63796;53.136;14.882;2022-11-28T16:37:35;3.60;99.90
75210;DHT22;63796;53.136;14.882;2022-11-28T16:40:20;3.60;99.90
75210;DHT22;63796;53.136;14.882;2022-11-28T16:42:53;3.60;99.90
75210;DHT22;63796;53.136;14.882;2022-11-28T16:45:26;3.50;99.90
75210;DHT22;63796;53.136;14.882;2022-11-28T16:48:07;3.60;99.90
75210;DHT22;63796;53.136;14.882;2022-11-28T16:53:47;3.50;99.90
75210;DHT22;63796;53.136;14.882;2022-11-28T16:59:14;3.50;99.90
75210;DHT22;63796;53.136;14.882;2022-11-28T17:01:44;3.50;99.90
75210;DHT22;63796;53.136;14.882;2022-11-28T17:04:26;3.50;99.90
75210;DHT22;63796;53.136;14.882;2022-11-28T17:06:57;3.50;99.90
75210;DHT22;63796;53.136;14.882;2022-11-28T17:09:26;3.40;99.90
75210;DHT22;63796;53.136;14.882;2022-11-28T17:14:31;3.40;99.90
75210;DHT22;63796;53.136;14.882;2022-11-28T17:16:59;3.40;99.90
75210;DHT22;63796;53.136;14.882;2022-11-28T17:19:26;3.40;99.90
75210;DHT22;63796;53.136;14.882;2022-11-28T17:21:55;3.30;99.90
75210;DHT22;63796;53.136;14.882;2022-11-28T17:24:30;3.30;99.90
75210;DHT22;63796;53.136;14.882;2022-11-28T17:27:01;3.30;99.90
75210;DHT22;63796;53.136;14.882;2022-11-28T17:29:28;3.20;99.90
75210;DHT22;63796;53.136;14.882;2022-11-28T17:31:55;3.20;99.90
75210;DHT22;63796;53.136;14.882;2022-11-28T17:34:26;3.20;99.90
75210;DHT22;63796;53.136;14.882;2022-11-28T17:36:57;3.10;99.90
75210;DHT22;63796;53.136;14.882;2022-11-28T17:39:25;3.20;99.90
75210;DHT22;63796;53.136;14.882;2022-11-28T17:41:56;3.20;99.90
75210;DHT22;63796;53.136;14.882;2022-11-28T17:44:26;3.10;99.90
75210;DHT22;63796;53.136;14.882;2022-11-28T17:46:55;3.10;99.90
75210;DHT22;63796;53.136;14.882;2022-11-28T17:49:23;3.10;99.90
75210;DHT22;63796;53.136;14.882;2022-11-28T17:51:51;3.10;99.90
75210;DHT22;63796;53.136;14.882;2022-11-28T17:54:20;3.10;99.90
75210;DHT22;63796;53.136;14.882;2022-11-28T17:56:49;3.10;99.90
75210;DHT22;63796;53.136;14.882;2022-11-28T17:59:20;3.10;99.90
75210;DHT22;63796;53.136;14.882;2022-11-28T18:01:49;3.00;99.90
75210;DHT22;63796;53.136;14.882;2022-11-28T18:04:16;3.10;99.90
75210;DHT22;63796;53.136;14.882;2022-11-28T18:06:46;3.00;99.90
75210;DHT22;63796;53.136;14.882;2022-11-28T18:09:13;3.00;99.90
75210;DHT22;63796;53.136;14.882;2022-11-28T18:11:41;3.10;99.90
75210;DHT22;63796;53.136;14.882;2022-11-28T18:14:09;3.00;99.90
75210;DHT22;63796;53.136;14.882;2022-11-28T18:16:36;3.00;99.90
75210;DHT22;63796;53.136;14.882;2022-11-28T18:19:05;3.00;99.90
75210;DHT22;63796;53.136;14.882;2022-11-28T18:21:32;3.00;99.90
75210;DHT22;63796;53.136;14.882;2022-11-28T18:23:58;2.90;99.90
75210;DHT22;63796;53.136;14.882;2022-11-28T18:26:25;2.90;99.90
75210;DHT22;63796;53.136;14.882;2022-11-28T18:28:53;2.90;99.90
75210;DHT22;63796;53.136;14.882;2022-11-28T18:31:22;3.00;99.90
75210;DHT22;63796;53.136;14.882;2022-11-28T18:33:51;2.90;99.90
75210;DHT22;63796;53.136;14.882;2022-11-28T18:36:21;3.00;99.90
75210;DHT22;63796;53.136;14.882;2022-11-28T18:38:55;3.00;99.90
75210;DHT22;63796;53.136;14.882;2022-11-28T18:41:22;3.00;99.90
75210;DHT22;63796;53.136;14.882;2022-11-28T18:43:54;3.00;99.90
75210;DHT22;63796;53.136;14.882;2022-11-28T18:46:22;3.00;99.90
75210;DHT22;63796;53.136;14.882;2022-11-28T18:48:50;3.00;99.90
75210;DHT22;63796;53.136;14.882;2022-11-28T18:51:26;2.90;99.90
75210;DHT22;63796;53.136;14.882;2022-11-28T18:53:56;2.90;99.90
75210;DHT22;63796;53.136;14.882;2022-11-28T18:56:24;2.90;99.90
75210;DHT22;63796;53.136;14.882;2022-11-28T18:58:52;2.90;99.90
75210;DHT22;63796;53.136;14.882;2022-11-28T19:01:25;2.90;99.90
75210;DHT22;63796;53.136;14.882;2022-11-28T19:04:02;2.90;99.90
75210;DHT22;63796;53.136;14.882;2022-11-28T19:06:28;3.30;99.90
75210;DHT22;63796;53.136;14.882;2022-11-28T19:08:58;3.30;99.90
75210;DHT22;63796;53.136;14.882;2022-11-28T19:11:27;3.00;99.90
75210;DHT22;63796;53.136;14.882;2022-11-28T19:13:55;2.90;99.90
75210;DHT22;63796;53.136;14.882;2022-11-28T19:16:25;2.90;99.90